Time;durP1;ratioP1;P1;durP2;ratioP2;P2;SDS_P1;SDS_P2;PMS_P1;PMS_P2;Temp;Humidity;BMP_temperature;BMP_pressure;BME280_temperature;BME280_humidity;BME280_pressure;Samples;Min_cycle;Max_cycle;Signal;HPM_P1;HPM_P2
2021/08/31 00:00:50;;;;;;;20.27;13.10;;;;;;;16.63;79.23;96954.19;5046215;28;20418;-68
2021/08/31 00:03:15;;;;;;;16.30;13.07;;;;;;;16.56;79.15;96954.16;5049357;28;20206;-66
2021/08/31 00:05:41;;;;;;;15.77;13.20;;;;;;;16.41;79.94;96944.53;5052290;28;20264;-68
2021/08/31 00:08:07;;;;;;;20.10;14.00;;;;;;;16.63;78.92;96948.91;5051163;28;20183;-68
2021/08/31 00:10:32;;;;;;;15.47;11.97;;;;;;;16.67;78.75;96956.25;5051177;28;20183;-67
2021/08/31 00:12:58;;;;;;;14.23;12.70;;;;;;;16.43;80.24;96961.03;5051824;28;20206;-68
2021/08/31 00:15:23;;;;;;;14.50;12.33;;;;;;;16.65;79.05;96960.91;5050775;28;20194;-69
2021/08/31 00:17:49;;;;;;;15.17;12.80;;;;;;;16.53;79.44;96959.84;5037649;28;20287;-68
2021/08/31 00:20:14;;;;;;;18.40;12.77;;;;;;;16.58;79.33;96963.53;5041791;28;20186;-68
2021/08/31 00:22:40;;;;;;;15.27;12.53;;;;;;;16.78;78.19;96957.53;5052023;28;20244;-69
2021/08/31 00:25:07;;;;;;;17.80;14.27;;;;;;;16.51;79.78;96961.88;5050345;28;20203;-68
2021/08/31 00:27:33;;;;;;;21.13;15.03;;;;;;;16.44;80.21;96964.50;5051602;28;20225;-68
2021/08/31 00:29:59;;;;;;;19.10;13.23;;;;;;;16.62;79.32;96961.34;5050603;28;20421;-68
2021/08/31 00:32:25;;;;;;;16.53;13.67;;;;;;;16.68;79.05;96962.38;5051228;28;21030;-68
2021/08/31 00:34:51;;;;;;;19.97;15.13;;;;;;;16.48;79.58;96967.56;5050417;28;20175;-67
2021/08/31 00:37:16;;;;;;;20.10;15.90;;;;;;;16.50;79.63;96968.19;5043324;28;20184;-67
2021/08/31 00:39:42;;;;;;;20.10;15.00;;;;;;;16.74;78.84;96961.56;5051505;28;20887;-68
2021/08/31 00:42:07;;;;;;;21.23;15.60;;;;;;;16.57;79.33;96966.38;5051420;28;20195;-68
2021/08/31 00:44:33;;;;;;;21.50;16.13;;;;;;;16.57;80.06;96966.38;5049931;28;20202;-69
2021/08/31 00:46:59;;;;;;;23.90;17.03;;;;;;;16.66;79.60;96967.84;5042132;28;20175;-68
2021/08/31 00:49:25;;;;;;;20.17;15.63;;;;;;;16.62;79.94;96963.97;5051802;28;20623;-68
2021/08/31 00:51:51;;;;;;;19.83;15.80;;;;;;;16.47;80.66;96969.38;5051893;28;20432;-68
2021/08/31 00:54:18;;;;;;;22.40;15.70;;;;;;;16.59;80.34;96961.72;5049690;28;20510;-68
2021/08/31 00:56:45;;;;;;;24.10;14.70;;;;;;;16.66;79.42;96967.03;5051350;28;20944;-69
2021/08/31 00:59:14;;;;;;;20.80;15.57;;;;;;;16.49;80.11;96972.66;5051174;28;20421;-67
2021/08/31 01:01:42;;;;;;;17.63;14.70;;;;;;;16.61;79.72;96966.81;5049883;28;20500;-68
2021/08/31 01:04:08;;;;;;;22.47;16.00;;;;;;;16.84;78.92;96969.16;5050018;28;20884;-67
2021/08/31 01:06:33;;;;;;;26.53;16.73;;;;;;;16.68;79.39;96978.25;5047320;28;20832;-66
2021/08/31 01:08:59;;;;;;;19.17;15.70;;;;;;;16.41;80.58;96968.34;5047083;28;20261;-67
2021/08/31 01:11:25;;;;;;;21.77;17.17;;;;;;;16.36;81.15;96968.13;5050451;28;20187;-67
2021/08/31 01:13:51;;;;;;;26.00;18.73;;;;;;;16.39;81.47;96969.56;5048582;28;20191;-70
2021/08/31 01:16:16;;;;;;;27.97;19.20;;;;;;;16.27;81.99;96966.63;5041142;28;20906;-66
2021/08/31 01:18:42;;;;;;;27.27;19.20;;;;;;;16.39;81.03;96970.34;5045136;28;20180;-68
2021/08/31 01:21:09;;;;;;;29.33;19.87;;;;;;;16.63;80.39;96970.91;5045952;28;20182;-68
2021/08/31 01:23:34;;;;;;;27.33;18.47;;;;;;;16.62;80.40;96976.38;5049968;28;20282;-68
2021/08/31 01:26:01;;;;;;;25.60;19.47;;;;;;;16.51;80.58;96975.09;5051021;28;20555;-68
2021/08/31 01:28:29;;;;;;;27.27;20.23;;;;;;;16.43;80.84;96976.09;5050532;28;20245;-68
2021/08/31 01:30:57;;;;;;;28.90;19.90;;;;;;;16.22;81.66;96977.78;5050326;28;20440;-67
2021/08/31 01:33:28;;;;;;;27.53;20.37;;;;;;;16.15;82.40;96981.41;5048687;28;20801;-68
2021/08/31 01:35:53;;;;;;;31.70;21.03;;;;;;;16.18;82.72;96978.38;5049100;28;20432;-68
2021/08/31 01:38:19;;;;;;;31.00;20.47;;;;;;;16.25;82.06;96980.06;5049939;28;20441;-69
2021/08/31 01:40:45;;;;;;;33.23;21.80;;;;;;;16.04;83.08;96977.47;5050263;28;20230;-68
2021/08/31 01:43:10;;;;;;;31.30;22.70;;;;;;;16.09;83.17;96978.53;5047509;28;20213;-69
2021/08/31 01:45:46;;;;;;;35.37;23.00;;;;;;;16.03;83.72;96987.22;5049630;28;20213;-68
2021/08/31 01:48:12;;;;;;;38.60;22.80;;;;;;;16.19;83.10;96982.66;5045499;28;20715;-67
2021/08/31 01:50:37;;;;;;;36.40;25.43;;;;;;;16.19;83.22;96985.28;5049746;28;20426;-66
2021/08/31 01:53:04;;;;;;;33.33;23.57;;;;;;;16.15;82.95;96984.03;5050899;28;20202;-69
2021/08/31 01:55:29;;;;;;;34.60;24.17;;;;;;;16.39;81.52;96980.13;5049957;28;20265;-69
2021/08/31 01:57:55;;;;;;;36.50;23.83;;;;;;;16.50;81.36;96987.50;5050750;28;20434;-68
2021/08/31 02:00:21;;;;;;;37.93;24.70;;;;;;;16.10;83.13;96988.09;5050302;28;20266;-69
2021/08/31 02:02:46;;;;;;;35.60;23.10;;;;;;;16.37;81.96;96982.16;5051050;28;20202;-68
2021/08/31 02:05:12;;;;;;;35.67;23.50;;;;;;;16.48;80.91;96980.78;5049383;28;20206;-67
2021/08/31 02:07:37;;;;;;;34.43;23.00;;;;;;;16.56;80.14;96983.28;5050136;28;20289;-68
2021/08/31 02:10:06;;;;;;;33.80;22.97;;;;;;;16.67;79.87;96982.72;5050337;28;20213;-68
2021/08/31 02:12:32;;;;;;;31.50;21.90;;;;;;;16.66;79.42;96985.56;5035165;28;20713;-68
2021/08/31 02:14:58;;;;;;;33.67;22.73;;;;;;;16.63;79.01;96991.25;5049912;28;20437;-69
2021/08/31 02:17:23;;;;;;;30.23;20.87;;;;;;;16.69;79.25;96988.63;5041747;28;20187;-69
2021/08/31 02:19:49;;;;;;;32.77;21.27;;;;;;;16.41;80.32;96989.50;5041215;28;20176;-68
2021/08/31 02:22:15;;;;;;;31.20;20.20;;;;;;;16.48;80.17;96988.72;5048766;28;20226;-69
2021/08/31 02:24:41;;;;;;;29.33;20.13;;;;;;;16.80;78.94;96989.06;5048330;28;20198;-69
2021/08/31 02:27:06;;;;;;;32.70;22.03;;;;;;;16.66;78.92;96991.66;5050156;28;20265;-70
2021/08/31 02:29:32;;;;;;;45.60;26.60;;;;;;;16.72;79.41;96990.06;5050476;28;20521;-68
2021/08/31 02:31:58;;;;;;;35.20;21.37;;;;;;;16.56;79.98;96991.22;5050441;28;20179;-69
2021/08/31 02:34:23;;;;;;;90.73;33.77;;;;;;;16.56;79.63;96985.91;5053083;28;20179;-68
2021/08/31 02:36:49;;;;;;;70.33;28.57;;;;;;;16.66;79.70;96994.31;5054159;28;20559;-69
2021/08/31 02:39:14;;;;;;;53.47;25.53;;;;;;;16.33;80.99;96992.31;5052501;28;20195;-68
2021/08/31 02:41:40;;;;;;;64.60;26.83;;;;;;;16.46;80.08;96988.91;5053449;28;20179;-69
2021/08/31 02:44:05;;;;;;;75.90;30.83;;;;;;;16.37;80.58;97001.50;5052902;28;20207;-71
2021/08/31 02:46:31;;;;;;;154.83;44.80;;;;;;;16.60;79.73;96997.75;5045405;28;20185;-68
2021/08/31 02:48:57;;;;;;;56.83;24.07;;;;;;;16.34;81.05;96996.59;5053919;28;20248;-67
2021/08/31 02:51:22;;;;;;;34.67;21.00;;;;;;;16.58;79.59;96997.13;5053584;28;20191;-68
2021/08/31 02:53:48;;;;;;;35.13;21.77;;;;;;;16.63;79.33;96993.88;5052996;28;20281;-68
2021/08/31 02:56:14;;;;;;;30.57;21.40;;;;;;;16.51;80.54;96999.72;5044582;28;20179;-66
2021/08/31 02:58:39;;;;;;;29.27;21.30;;;;;;;16.39;80.46;96999.44;5052716;28;20179;-67
2021/08/31 03:01:15;;;;;;;30.97;21.07;;;;;;;16.33;80.82;97002.88;5052682;28;20270;-67
2021/08/31 03:03:41;;;;;;;34.60;22.53;;;;;;;16.40;80.85;96997.63;5048360;28;20282;-68
2021/08/31 03:06:09;;;;;;;29.07;20.57;;;;;;;16.53;79.88;96994.22;5034009;28;20524;-69
2021/08/31 03:08:35;;;;;;;32.77;22.13;;;;;;;16.42;79.81;96995.63;5053559;28;20217;-66
2021/08/31 03:11:01;;;;;;;53.10;25.97;;;;;;;16.35;80.57;97000.88;5053249;28;20780;-68
2021/08/31 03:13:27;;;;;;;44.07;25.83;;;;;;;16.41;80.55;97007.22;5052220;28;20442;-68
2021/08/31 03:15:52;;;;;;;61.93;28.70;;;;;;;16.41;80.48;97005.38;5053041;28;20308;-66
2021/08/31 03:18:18;;;;;;;56.60;27.53;;;;;;;16.45;80.17;97007.63;5050343;28;20194;-67
2021/08/31 03:20:44;;;;;;;53.47;26.10;;;;;;;16.61;79.40;97004.69;5052626;28;20179;-68
2021/08/31 03:23:09;;;;;;;81.33;31.03;;;;;;;16.60;79.79;97005.69;5052924;28;20195;-68
2021/08/31 03:25:35;;;;;;;56.00;25.73;;;;;;;16.51;80.06;97007.66;5052102;28;20205;-68
2021/08/31 03:28:00;;;;;;;33.20;21.80;;;;;;;16.45;80.04;97005.78;5052851;28;20182;-68
2021/08/31 03:30:26;;;;;;;26.90;20.57;;;;;;;16.27;81.01;97008.94;5052689;28;20179;-68
2021/08/31 03:32:51;;;;;;;29.63;21.10;;;;;;;16.58;79.67;97007.69;5051722;28;20202;-67
2021/08/31 03:35:17;;;;;;;32.03;20.97;;;;;;;16.47;79.87;97013.53;5048473;28;20200;-68
2021/08/31 03:37:43;;;;;;;33.63;20.23;;;;;;;16.54;79.04;97009.09;5050907;28;20198;-68
2021/08/31 03:40:09;;;;;;;30.33;20.47;;;;;;;16.50;79.04;97008.69;5052480;28;20187;-68
2021/08/31 03:42:35;;;;;;;28.00;20.43;;;;;;;16.72;78.56;97021.81;5048129;28;20199;-68
2021/08/31 03:45:00;;;;;;;28.80;21.50;;;;;;;16.54;79.27;97009.09;5051647;28;20826;-68
2021/08/31 03:47:26;;;;;;;28.80;20.27;;;;;;;16.56;78.90;97017.66;5052414;28;20195;-68
2021/08/31 03:49:51;;;;;;;32.90;21.60;;;;;;;16.71;78.67;97021.00;5052506;28;20261;-68
2021/08/31 03:52:17;;;;;;;34.77;21.60;;;;;;;16.54;79.20;97014.38;5052478;28;20808;-69
2021/08/31 03:54:42;;;;;;;28.10;20.90;;;;;;;16.34;79.84;97014.25;5052574;28;20574;-68
2021/08/31 03:57:08;;;;;;;35.73;22.63;;;;;;;16.55;79.20;97011.56;5050977;28;20232;-68
2021/08/31 03:59:34;;;;;;;31.43;20.63;;;;;;;16.51;79.13;97018.25;5052463;28;20270;-67
2021/08/31 04:01:59;;;;;;;31.03;20.70;;;;;;;16.42;79.55;97011.50;5052508;28;20186;-67
2021/08/31 04:04:25;;;;;;;28.00;20.20;;;;;;;16.32;79.80;97029.53;5051148;28;20260;-68
2021/08/31 04:06:50;;;;;;;29.13;21.13;;;;;;;16.33;79.52;97023.19;5048981;28;20233;-67
2021/08/31 04:09:16;;;;;;;32.30;20.30;;;;;;;16.55;78.93;97022.16;5052242;28;20187;-68
2021/08/31 04:11:41;;;;;;;32.20;22.20;;;;;;;16.22;80.50;97020.09;5052459;28;20328;-66
2021/08/31 04:14:07;;;;;;;29.33;21.63;;;;;;;16.46;79.80;97022.50;5051415;28;20179;-68
2021/08/31 04:16:33;;;;;;;31.97;21.63;;;;;;;16.17;81.14;97021.69;5050236;28;20178;-67
2021/08/31 04:18:58;;;;;;;31.33;21.67;;;;;;;16.36;80.33;97028.94;5045269;28;20560;-67
2021/08/31 04:21:24;;;;;;;32.03;22.80;;;;;;;16.45;79.97;97028.78;5051552;28;20195;-67
2021/08/31 04:23:49;;;;;;;33.57;23.87;;;;;;;16.23;80.38;97028.84;5050082;28;20582;-67
2021/08/31 04:26:15;;;;;;;33.00;21.70;;;;;;;16.29;80.09;97033.34;5051708;28;20183;-67
2021/08/31 04:28:40;;;;;;;35.97;23.47;;;;;;;16.57;79.12;97041.25;5051903;28;20650;-67
2021/08/31 04:31:06;;;;;;;37.00;24.20;;;;;;;16.28;80.01;97043.13;5051644;28;20183;-67
2021/08/31 04:33:32;;;;;;;36.83;22.70;;;;;;;16.67;78.89;97045.41;5050882;28;20630;-68
2021/08/31 04:35:57;;;;;;;33.90;23.10;;;;;;;16.30;80.28;97050.88;5046814;28;20198;-68
2021/08/31 04:38:23;;;;;;;35.37;24.40;;;;;;;16.42;79.85;97046.66;5051407;28;20195;-67
2021/08/31 04:40:48;;;;;;;36.30;25.03;;;;;;;16.42;79.76;97049.31;5051666;28;20187;-68
2021/08/31 04:43:14;;;;;;;33.37;24.03;;;;;;;16.37;80.21;97054.38;5050805;28;20199;-68
2021/08/31 04:45:40;;;;;;;33.70;22.70;;;;;;;16.11;81.00;97047.06;5051749;28;20199;-68
2021/08/31 04:48:05;;;;;;;33.00;22.43;;;;;;;16.40;80.01;97051.34;5035420;28;20180;-67
2021/08/31 04:50:31;;;;;;;33.70;22.17;;;;;;;16.41;79.34;97042.38;5052428;28;20183;-67
2021/08/31 04:52:57;;;;;;;32.70;21.47;;;;;;;16.59;78.46;97046.38;5051152;28;20198;-68
2021/08/31 04:55:22;;;;;;;25.47;19.90;;;;;;;16.91;77.30;97041.44;5049397;28;20203;-69
2021/08/31 04:57:48;;;;;;;27.87;20.97;;;;;;;16.89;77.05;97049.59;5051276;28;20183;-66
2021/08/31 05:00:15;;;;;;;26.77;19.20;;;;;;;16.54;78.29;97056.72;5051445;28;20198;-68
2021/08/31 05:02:41;;;;;;;30.50;20.70;;;;;;;16.56;78.03;97057.34;5051475;28;20206;-67
2021/08/31 05:05:07;;;;;;;27.73;20.60;;;;;;;16.71;77.26;97065.97;5039618;28;20510;-67
2021/08/31 05:07:33;;;;;;;27.13;21.17;;;;;;;16.70;77.72;97060.88;5051143;28;20547;-68
2021/08/31 05:09:58;;;;;;;28.77;21.37;;;;;;;16.53;78.63;97069.13;5051344;28;20421;-67
2021/08/31 05:12:24;;;;;;;32.50;22.30;;;;;;;16.63;78.13;97063.50;5050710;28;20217;-68
2021/08/31 05:14:50;;;;;;;33.60;21.60;;;;;;;16.53;78.40;97071.78;5046803;28;20559;-68
2021/08/31 05:17:15;;;;;;;29.20;20.50;;;;;;;16.46;78.68;97064.81;5047509;28;20190;-67
2021/08/31 05:19:42;;;;;;;33.00;21.53;;;;;;;16.52;78.50;97069.31;5042954;28;20189;-67
2021/08/31 05:22:08;;;;;;;31.90;21.27;;;;;;;16.48;78.94;97074.16;5033424;28;20200;-68
2021/08/31 05:24:34;;;;;;;28.70;20.70;;;;;;;16.42;78.50;97075.75;5050312;28;20805;-67
2021/08/31 05:26:59;;;;;;;27.17;20.80;;;;;;;16.34;79.01;97078.56;5051282;28;20428;-65
2021/08/31 05:29:25;;;;;;;27.30;21.23;;;;;;;16.53;78.26;97082.34;5051324;28;20210;-69
2021/08/31 05:31:52;;;;;;;30.70;19.80;;;;;;;16.65;77.82;97089.75;5071716;28;20197;-68
2021/08/31 05:34:18;;;;;;;28.80;19.33;;;;;;;16.34;79.01;97083.84;5054832;28;20172;-66
2021/08/31 05:36:43;;;;;;;26.90;19.87;;;;;;;16.63;77.64;97092.59;5064836;28;20427;-68
2021/08/31 05:39:09;;;;;;;25.23;20.30;;;;;;;16.62;78.04;97087.50;5066144;28;20206;-69
2021/08/31 05:41:35;;;;;;;26.33;19.27;;;;;;;16.70;77.62;97093.44;5048981;28;20180;-68
2021/08/31 05:44:01;;;;;;;27.13;19.80;;;;;;;16.42;78.32;97090.84;5045138;28;20909;-67
2021/08/31 05:46:27;;;;;;;27.07;20.30;;;;;;;16.47;78.70;97095.53;5024764;28;20180;-70
2021/08/31 05:48:53;;;;;;;28.43;21.27;;;;;;;16.53;78.44;97095.59;5039111;28;20975;-66
2021/08/31 05:51:18;;;;;;;31.27;21.53;;;;;;;16.67;77.85;97093.84;5043842;28;20171;-67
2021/08/31 05:53:45;;;;;;;27.13;20.43;;;;;;;16.65;77.33;97101.16;5031718;28;20202;-68
2021/08/31 05:56:10;;;;;;;25.03;18.37;;;;;;;16.50;77.92;97103.09;5049197;28;20215;-68
2021/08/31 05:58:36;;;;;;;25.00;19.60;;;;;;;16.66;77.81;97097.50;5036455;28;20538;-68
2021/08/31 06:01:02;;;;;;;22.60;17.60;;;;;;;16.52;77.99;97099.25;5050699;28;20212;-68
2021/08/31 06:03:28;;;;;;;24.47;17.83;;;;;;;16.82;77.06;97099.00;5050097;28;20191;-68
2021/08/31 06:05:53;;;;;;;23.50;17.60;;;;;;;16.63;77.51;97108.47;5050412;28;20203;-67
2021/08/31 06:08:19;;;;;;;21.47;16.03;;;;;;;16.36;78.18;97116.22;5053621;28;20183;-68
2021/08/31 06:10:45;;;;;;;20.07;15.37;;;;;;;16.62;77.29;97112.13;5054209;28;20190;-68
2021/08/31 06:13:11;;;;;;;22.47;16.70;;;;;;;16.84;76.44;97112.06;5037916;28;20445;-68
2021/08/31 06:15:37;;;;;;;23.23;16.60;;;;;;;16.56;77.31;97112.88;5051166;28;20816;-68
2021/08/31 06:18:02;;;;;;;23.20;16.47;;;;;;;16.61;77.88;97118.44;5054669;28;20238;-67
2021/08/31 06:20:28;;;;;;;24.30;16.97;;;;;;;17.22;75.32;97116.97;5036984;28;20179;-68
2021/08/31 06:22:53;;;;;;;26.27;16.17;;;;;;;17.04;75.75;97117.50;5053392;28;20207;-68
2021/08/31 06:25:19;;;;;;;18.67;14.93;;;;;;;17.11;75.69;97128.13;5053048;28;20206;-67
2021/08/31 06:27:45;;;;;;;20.60;15.60;;;;;;;17.25;74.73;97121.88;5053440;28;20174;-67
2021/08/31 06:30:10;;;;;;;22.83;15.60;;;;;;;17.09;75.13;97124.84;5053177;28;20175;-67
2021/08/31 06:32:36;;;;;;;22.90;16.70;;;;;;;16.37;78.60;97136.38;5054310;28;20677;-69
2021/08/31 06:35:02;;;;;;;21.50;16.60;;;;;;;17.06;75.96;97133.19;5053955;28;20186;-67
2021/08/31 06:37:27;;;;;;;18.93;15.90;;;;;;;16.98;75.25;97134.97;5054269;28;20233;-67
2021/08/31 06:39:53;;;;;;;23.47;17.73;;;;;;;16.71;76.45;97134.78;5054336;28;20471;-67
2021/08/31 06:42:19;;;;;;;22.70;17.60;;;;;;;16.43;78.16;97140.06;5054027;28;20568;-67
2021/08/31 06:44:44;;;;;;;19.77;16.03;;;;;;;16.41;77.89;97142.88;5051774;28;20195;-66
2021/08/31 06:47:10;;;;;;;20.60;16.00;;;;;;;16.89;76.08;97139.56;5050509;28;20248;-68
2021/08/31 06:49:36;;;;;;;17.93;14.90;;;;;;;17.00;75.73;97132.13;5053584;28;20226;-67
2021/08/31 06:52:02;;;;;;;18.93;15.07;;;;;;;17.04;75.11;97138.69;5053991;28;20429;-68
2021/08/31 06:54:28;;;;;;;17.60;14.50;;;;;;;16.92;75.55;97138.38;5052333;28;20199;-69
2021/08/31 06:56:53;;;;;;;21.47;15.50;;;;;;;17.27;74.33;97130.44;5054293;28;20421;-67
2021/08/31 06:59:19;;;;;;;23.03;14.90;;;;;;;16.88;75.39;97135.28;5053921;28;20171;-68
2021/08/31 07:01:44;;;;;;;20.60;16.37;;;;;;;16.73;76.21;97135.41;5053903;28;20585;-67
2021/08/31 07:04:10;;;;;;;19.17;14.60;;;;;;;16.86;75.80;97134.66;5051779;28;20682;-67
2021/08/31 07:06:36;;;;;;;20.10;14.00;;;;;;;17.12;75.50;97137.72;5052533;28;20266;-68
2021/08/31 07:09:02;;;;;;;22.37;13.90;;;;;;;16.85;75.84;97142.81;5053621;28;20179;-67
2021/08/31 07:11:27;;;;;;;17.70;14.20;;;;;;;16.89;75.81;97144.03;5051784;28;20732;-67
2021/08/31 07:13:53;;;;;;;16.40;13.80;;;;;;;17.39;74.03;97137.84;5052289;28;20440;-67
2021/08/31 07:16:19;;;;;;;18.90;14.17;;;;;;;17.65;73.47;97145.84;5050002;28;20186;-68
2021/08/31 07:18:45;;;;;;;21.97;13.50;;;;;;;17.07;75.71;97142.75;5046986;28;20430;-67
2021/08/31 07:21:10;;;;;;;18.30;14.03;;;;;;;17.46;73.85;97150.06;5049900;28;20179;-69
2021/08/31 07:23:36;;;;;;;18.23;13.03;;;;;;;17.26;74.00;97151.81;5051392;28;20289;-68
2021/08/31 07:26:01;;;;;;;16.77;12.30;;;;;;;17.21;73.76;97157.72;5051727;28;20240;-67
2021/08/31 07:28:27;;;;;;;28.53;14.33;;;;;;;17.61;72.57;97155.25;5052851;28;20279;-67
2021/08/31 07:30:53;;;;;;;42.70;19.27;;;;;;;17.86;71.95;97153.88;5051629;28;20706;-68
2021/08/31 07:33:18;;;;;;;14.17;12.00;;;;;;;17.77;71.61;97153.22;5052115;28;20195;-69
2021/08/31 07:35:44;;;;;;;12.73;11.43;;;;;;;17.46;71.63;97154.56;5052744;28;20179;-67
2021/08/31 07:38:10;;;;;;;19.80;12.50;;;;;;;17.87;70.51;97153.69;5052491;28;20209;-67
2021/08/31 07:40:35;;;;;;;12.43;11.13;;;;;;;18.13;69.85;97165.41;5051832;28;20175;-69
2021/08/31 07:43:01;;;;;;;12.40;10.10;;;;;;;18.10;69.05;97166.59;5050420;28;20256;-67
2021/08/31 07:45:27;;;;;;;19.43;12.20;;;;;;;17.93;69.30;97168.78;5049091;28;20199;-68
2021/08/31 07:47:52;;;;;;;63.57;24.30;;;;;;;18.35;68.49;97168.66;5052379;28;20689;-69
2021/08/31 07:50:18;;;;;;;14.17;10.47;;;;;;;18.07;69.08;97171.50;5052756;28;20175;-68
2021/08/31 07:52:44;;;;;;;35.40;15.63;;;;;;;18.10;69.60;97171.09;5052617;28;20206;-68
2021/08/31 07:55:10;;;;;;;16.83;11.60;;;;;;;18.02;69.71;97180.06;5052032;28;20201;-67
2021/08/31 07:57:37;;;;;;;15.97;10.53;;;;;;;18.16;69.31;97185.38;5052422;28;20210;-69
2021/08/31 08:00:07;;;;;;;20.57;10.33;;;;;;;18.91;66.91;97187.84;5048531;28;20426;-69
2021/08/31 08:02:34;;;;;;;23.43;12.40;;;;;;;18.67;67.13;97194.59;5036591;28;20982;-68
2021/08/31 08:05:01;;;;;;;14.23;9.90;;;;;;;18.40;67.37;97192.75;5049735;28;20532;-69
2021/08/31 08:07:26;;;;;;;10.63;9.13;;;;;;;19.26;64.83;97189.47;5052053;28;20418;-68
2021/08/31 08:09:53;;;;;;;11.00;8.37;;;;;;;19.39;64.15;97186.78;5052513;28;20475;-68
2021/08/31 08:12:19;;;;;;;9.87;7.70;;;;;;;19.79;62.82;97191.91;5048969;28;20209;-68
2021/08/31 08:14:45;;;;;;;8.07;7.27;;;;;;;20.03;61.03;97194.09;5039852;28;20414;-68
2021/08/31 08:17:10;;;;;;;7.57;6.50;;;;;;;20.31;59.22;97190.25;5048696;28;20785;-68
2021/08/31 08:19:36;;;;;;;7.63;6.47;;;;;;;20.53;58.96;97198.69;5042985;28;20210;-67
2021/08/31 08:22:02;;;;;;;12.53;8.07;;;;;;;20.12;59.92;97192.00;5051977;28;20539;-66
2021/08/31 08:24:27;;;;;;;10.47;7.50;;;;;;;19.41;62.62;97205.97;5051281;28;20206;-68
2021/08/31 08:26:57;;;;;;;9.10;8.00;;;;;;;19.08;63.02;97212.16;5045215;28;20266;-68
2021/08/31 08:29:23;;;;;;;8.80;6.70;;;;;;;19.26;61.79;97205.41;5050775;28;20191;-68
2021/08/31 08:31:49;;;;;;;10.07;7.87;;;;;;;19.76;60.28;97197.69;5051027;28;20531;-69
2021/08/31 08:34:14;;;;;;;13.33;7.80;;;;;;;19.86;60.34;97199.06;5032638;28;20507;-68
2021/08/31 08:36:40;;;;;;;8.33;7.53;;;;;;;18.46;64.32;97206.25;5050870;28;20509;-69
2021/08/31 08:39:06;;;;;;;9.53;6.80;;;;;;;18.59;64.56;97214.19;5050534;28;20586;-67
2021/08/31 08:41:32;;;;;;;7.90;7.00;;;;;;;18.45;64.65;97220.53;5051479;28;20508;-68
2021/08/31 08:44:00;;;;;;;9.90;8.40;;;;;;;18.68;65.21;97220.13;5050722;28;20195;-67
2021/08/31 08:46:26;;;;;;;18.10;7.83;;;;;;;18.40;65.50;97211.34;5048371;28;20175;-69
2021/08/31 08:48:52;;;;;;;11.13;8.60;;;;;;;18.44;65.36;97214.41;5052117;28;20505;-67
2021/08/31 08:51:19;;;;;;;9.17;7.40;;;;;;;18.30;65.00;97226.84;5051428;28;20493;-68
2021/08/31 08:53:45;;;;;;;10.20;7.47;;;;;;;18.77;64.18;97229.53;5049615;28;20195;-67
2021/08/31 08:56:10;;;;;;;9.00;7.63;;;;;;;17.86;66.91;97231.56;5050154;28;20940;-68
2021/08/31 08:58:36;;;;;;;9.50;7.57;;;;;;;17.55;68.37;97235.50;5051189;28;20643;-69
2021/08/31 09:01:05;;;;;;;9.27;7.40;;;;;;;17.90;66.85;97229.34;5035176;28;20186;-67
2021/08/31 09:03:33;;;;;;;8.17;7.37;;;;;;;18.53;65.22;97230.94;5050376;28;20202;-67
2021/08/31 09:06:18;;;;;;;8.90;8.00;;;;;;;18.44;65.79;97240.94;5051033;28;20457;-68
2021/08/31 09:08:52;;;;;;;9.20;8.20;;;;;;;17.99;67.30;97235.31;5051313;28;20884;-67
2021/08/31 09:11:47;;;;;;;8.83;7.93;;;;;;;18.81;64.28;97237.91;5051214;28;20562;-68
2021/08/31 09:14:32;;;;;;;9.47;8.00;;;;;;;18.37;66.38;97245.41;5048127;28;20801;-68
2021/08/31 09:17:03;;;;;;;10.43;8.40;;;;;;;18.47;66.37;97245.00;5047929;28;20421;-67
2021/08/31 09:19:37;;;;;;;12.37;8.90;;;;;;;19.05;65.12;97239.13;5042300;28;20479;-67
2021/08/31 09:22:24;;;;;;;9.23;8.33;;;;;;;18.90;65.10;97249.16;5050752;28;20948;-68
2021/08/31 09:25:09;;;;;;;10.90;8.27;;;;;;;18.94;64.71;97248.56;5040624;28;20448;-67
2021/08/31 09:27:39;;;;;;;9.30;8.33;;;;;;;18.74;64.88;97248.53;5051324;28;20424;-68
2021/08/31 09:30:15;;;;;;;8.70;7.37;;;;;;;19.21;63.37;97247.72;5050807;28;20505;-68
2021/08/31 09:33:06;;;;;;;9.50;6.80;;;;;;;19.73;61.76;97248.59;5049902;28;20512;-67
2021/08/31 09:35:36;;;;;;;11.00;7.60;;;;;;;19.92;59.87;97251.41;5034589;28;20418;-68
2021/08/31 09:38:07;;;;;;;12.00;7.60;;;;;;;19.71;61.61;97255.16;5050766;28;20472;-69
2021/08/31 09:40:41;;;;;;;7.57;6.77;;;;;;;20.14;60.12;97251.13;5043096;28;20779;-67
2021/08/31 09:43:12;;;;;;;8.60;7.60;;;;;;;18.96;62.15;97248.34;5042799;28;20438;-68
2021/08/31 09:45:40;;;;;;;12.60;7.33;;;;;;;18.90;62.85;97249.94;5047697;28;20477;-66
2021/08/31 09:48:08;;;;;;;12.33;7.90;;;;;;;19.02;62.63;97256.31;5033876;28;20410;-68
2021/08/31 09:50:42;;;;;;;9.23;7.37;;;;;;;19.23;62.54;97256.28;5049072;28;20425;-68
2021/08/31 09:53:08;;;;;;;10.40;7.90;;;;;;;19.32;62.10;97255.88;5050976;28;20437;-67
2021/08/31 09:55:34;;;;;;;7.93;7.10;;;;;;;19.76;60.20;97247.34;5042394;28;20427;-67
2021/08/31 09:58:13;;;;;;;13.37;7.50;;;;;;;19.31;61.33;97256.06;5041598;28;20201;-65
2021/08/31 10:00:44;;;;;;;9.67;6.63;;;;;;;19.15;62.04;97252.81;5050690;28;20401;-68
2021/08/31 10:03:10;;;;;;;10.00;6.37;;;;;;;19.45;61.21;97252.34;5050476;28;20947;-66
2021/08/31 10:05:37;;;;;;;7.20;6.53;;;;;;;18.89;63.02;97253.63;5049675;28;20493;-67
2021/08/31 10:08:04;;;;;;;7.33;6.63;;;;;;;19.06;61.68;97269.19;5032657;28;20425;-68
2021/08/31 10:10:31;;;;;;;11.53;6.87;;;;;;;18.24;63.64;97272.72;5048851;28;20421;-67
2021/08/31 10:12:58;;;;;;;8.70;6.97;;;;;;;18.03;64.88;97263.06;5033671;28;20431;-68
2021/08/31 10:15:24;;;;;;;8.87;6.97;;;;;;;18.69;63.45;97264.22;5045378;28;20411;-68
2021/08/31 10:17:51;;;;;;;7.93;7.10;;;;;;;18.46;65.27;97265.44;5049028;28;20418;-68
2021/08/31 10:20:27;;;;;;;8.73;7.70;;;;;;;18.67;65.48;97268.91;5040760;28;20421;-68
2021/08/31 10:22:54;;;;;;;10.57;8.20;;;;;;;18.67;65.10;97271.56;5049826;28;20502;-68
2021/08/31 10:25:21;;;;;;;10.37;8.13;;;;;;;18.55;64.71;97263.41;5049139;28;20488;-68
2021/08/31 10:27:47;;;;;;;10.87;8.60;;;;;;;18.62;64.27;97263.41;5049387;28;20436;-68
2021/08/31 10:30:13;;;;;;;15.73;8.40;;;;;;;18.56;64.61;97263.19;5050202;28;20936;-69
2021/08/31 10:32:39;;;;;;;10.47;8.47;;;;;;;18.36;65.17;97275.63;5050506;28;20203;-68
2021/08/31 10:35:05;;;;;;;7.70;7.00;;;;;;;18.51;64.71;97264.81;5048268;28;20535;-69
2021/08/31 10:37:44;;;;;;;8.93;7.77;;;;;;;18.83;63.18;97265.06;5049507;28;20456;-67
2021/08/31 10:40:09;;;;;;;9.23;6.83;;;;;;;18.93;63.36;97264.66;5049561;28;20480;-68
2021/08/31 10:42:35;;;;;;;9.30;8.20;;;;;;;18.86;63.12;97269.94;5031607;28;20844;-68
2021/08/31 10:45:04;;;;;;;10.67;7.43;;;;;;;19.39;61.05;97269.16;5046676;28;20210;-69
2021/08/31 10:47:33;;;;;;;8.40;6.97;;;;;;;19.80;60.25;97265.34;5033476;28;20208;-68
2021/08/31 10:49:59;;;;;;;9.73;8.10;;;;;;;19.89;59.51;97265.16;5050145;28;20409;-67
2021/08/31 10:52:36;;;;;;;9.77;8.27;;;;;;;20.31;58.32;97270.88;5049731;28;20448;-67
2021/08/31 10:55:27;;;;;;;12.17;7.67;;;;;;;20.01;58.61;97267.94;5052395;28;20178;-67
2021/08/31 10:57:57;;;;;;;7.13;6.43;;;;;;;19.65;59.65;97272.78;5049726;28;20422;-67
2021/08/31 11:00:27;;;;;;;7.60;6.53;;;;;;;19.93;58.42;97269.00;5052445;28;20433;-67
2021/08/31 11:02:53;;;;;;;11.20;7.47;;;;;;;20.15;57.78;97266.06;5040477;28;20431;-69
2021/08/31 11:05:22;;;;;;;7.60;6.90;;;;;;;20.42;57.10;97264.88;5048983;28;20454;-68
2021/08/31 11:07:54;;;;;;;8.70;7.40;;;;;;;21.00;56.04;97263.06;5053201;28;20912;-67
2021/08/31 11:10:21;;;;;;;9.07;7.20;;;;;;;19.90;59.00;97274.75;5053298;28;20608;-68
2021/08/31 11:12:48;;;;;;;8.37;7.23;;;;;;;20.09;58.50;97273.84;5053399;28;20449;-67
2021/08/31 11:15:23;;;;;;;7.90;7.03;;;;;;;20.36;58.60;97268.41;5048413;28;20454;-67
2021/08/31 11:17:51;;;;;;;12.90;7.10;;;;;;;19.83;57.77;97279.25;5052934;28;20428;-65
2021/08/31 11:20:29;;;;;;;7.07;6.37;;;;;;;19.39;59.19;97277.13;5044527;28;20421;-66